createdAt,value
2017-03-25T00:00:31.292Z,0
2017-03-25T00:01:32.546Z,0
2017-03-25T00:02:33.803Z,0
2017-03-25T00:03:35.059Z,0
2017-03-25T00:04:36.304Z,0
2017-03-25T00:05:37.527Z,0
2017-03-25T00:06:38.846Z,0
2017-03-25T00:07:40.309Z,0
2017-03-25T00:08:41.562Z,0
2017-03-25T00:09:42.775Z,0
2017-03-25T00:10:44.038Z,0
2017-03-25T00:11:45.312Z,0
2017-03-25T00:12:46.579Z,0
2017-03-25T00:13:47.795Z,0
2017-03-25T00:14:49.032Z,0
2017-03-25T00:15:50.319Z,0
2017-03-25T00:16:51.558Z,0
2017-03-25T00:17:52.790Z,0
2017-03-25T00:18:54.014Z,0
2017-03-25T00:19:55.256Z,0
2017-03-25T00:20:56.538Z,0
2017-03-25T00:21:57.773Z,0
2017-03-25T00:22:59.023Z,0
2017-03-25T00:24:00.270Z,0
2017-03-25T00:25:01.561Z,0
2017-03-25T00:26:02.819Z,0
2017-03-25T00:27:04.043Z,0
2017-03-25T00:28:05.287Z,0
2017-03-25T00:29:06.594Z,0
2017-03-25T00:30:07.808Z,0
2017-03-25T00:31:09.064Z,0
2017-03-25T00:32:10.278Z,0
2017-03-25T00:33:11.538Z,0
2017-03-25T00:34:12.823Z,0
2017-03-25T00:35:14.061Z,0
2017-03-25T00:36:15.269Z,0
2017-03-25T00:37:16.509Z,0
2017-03-25T00:38:17.748Z,0
2017-03-25T00:39:19.002Z,0
2017-03-25T00:40:20.238Z,0
2017-03-25T00:41:21.498Z,0
2017-03-25T00:42:22.715Z,0
2017-03-25T00:43:23.961Z,0
2017-03-25T00:44:25.180Z,0
2017-03-25T00:45:26.412Z,0
2017-03-25T00:46:27.643Z,0
2017-03-25T00:47:28.888Z,0
2017-03-25T00:48:30.143Z,0
2017-03-25T00:49:31.404Z,0
2017-03-25T00:50:32.641Z,0
2017-03-25T00:51:33.869Z,0
2017-03-25T00:52:35.103Z,0
2017-03-25T00:53:36.364Z,0
2017-03-25T00:54:37.608Z,0
2017-03-25T00:55:38.834Z,0
2017-03-25T00:56:40.071Z,0
2017-03-25T00:57:41.318Z,0
2017-03-25T00:58:42.583Z,0
2017-03-25T00:59:43.837Z,0
2017-03-25T01:00:45.081Z,0
2017-03-25T01:01:46.399Z,0
2017-03-25T01:02:47.643Z,0
2017-03-25T01:03:48.879Z,0
2017-03-25T01:04:50.115Z,0
2017-03-25T01:05:51.345Z,0
2017-03-25T01:06:52.856Z,0
2017-03-25T01:07:54.075Z,0
2017-03-25T01:08:55.316Z,0
2017-03-25T01:09:56.624Z,0
2017-03-25T01:10:57.856Z,0
2017-03-25T01:11:59.107Z,0
2017-03-25T01:13:00.364Z,0
2017-03-25T01:14:01.641Z,0
2017-03-25T01:15:02.859Z,0
2017-03-25T01:16:04.097Z,0
2017-03-25T01:17:05.369Z,0
2017-03-25T01:18:06.705Z,0
2017-03-25T01:19:08.018Z,0
2017-03-25T01:20:09.258Z,0
2017-03-25T01:21:10.505Z,0
2017-03-25T01:22:11.738Z,0
2017-03-25T01:23:12.974Z,0
2017-03-25T01:24:14.315Z,0
2017-03-25T01:25:15.604Z,0
2017-03-25T01:26:16.849Z,0
2017-03-25T01:27:18.094Z,0
2017-03-25T01:28:19.327Z,0
2017-03-25T01:29:20.546Z,0
2017-03-25T01:30:21.797Z,0
2017-03-25T01:31:23.020Z,0
2017-03-25T01:32:24.295Z,0
2017-03-25T01:33:25.525Z,0
2017-03-25T01:34:26.755Z,0
2017-03-25T01:35:27.992Z,0
2017-03-25T01:36:29.246Z,0
2017-03-25T01:37:30.510Z,0
2017-03-25T01:38:31.777Z,0
2017-03-25T01:39:33.020Z,0
2017-03-25T01:40:34.251Z,0
2017-03-25T01:41:35.490Z,0
2017-03-25T01:42:36.725Z,0
2017-03-25T01:43:37.956Z,0
2017-03-25T01:44:39.185Z,0
2017-03-25T01:45:40.413Z,0
2017-03-25T01:46:41.647Z,0
2017-03-25T01:47:42.886Z,0
2017-03-25T01:48:44.135Z,0
2017-03-25T01:49:45.472Z,0
2017-03-25T01:50:46.736Z,0
2017-03-25T01:51:48.061Z,0
2017-03-25T01:52:49.301Z,0
2017-03-25T01:53:50.530Z,0
2017-03-25T01:54:51.766Z,0
2017-03-25T01:55:52.995Z,0
2017-03-25T01:56:54.245Z,0
2017-03-25T01:57:55.494Z,0
2017-03-25T01:58:56.725Z,0
2017-03-25T01:59:57.957Z,0
2017-03-25T02:00:59.221Z,0
2017-03-25T02:02:00.527Z,0
2017-03-25T02:03:01.750Z,0
2017-03-25T02:04:03.001Z,0
2017-03-25T02:05:04.272Z,0
2017-03-25T02:06:05.486Z,0
2017-03-25T02:07:06.730Z,0
2017-03-25T02:08:07.968Z,0
2017-03-25T02:09:09.207Z,0
2017-03-25T02:10:10.516Z,0
2017-03-25T02:11:11.756Z,0
2017-03-25T02:12:12.994Z,0
2017-03-25T02:13:14.232Z,0
2017-03-25T02:14:15.475Z,0
2017-03-25T02:15:16.725Z,0
2017-03-25T02:16:17.942Z,0
2017-03-25T02:17:19.178Z,0
2017-03-25T02:18:20.413Z,0
2017-03-25T02:19:21.640Z,0
2017-03-25T02:20:22.879Z,0
2017-03-25T02:21:24.138Z,0
2017-03-25T02:22:25.515Z,0
2017-03-25T02:23:26.746Z,0
2017-03-25T02:24:28.125Z,0
2017-03-25T02:25:29.342Z,0
2017-03-25T02:26:30.606Z,0
2017-03-25T02:27:31.842Z,0
2017-03-25T02:28:33.100Z,0
2017-03-25T02:29:34.319Z,0
2017-03-25T02:30:35.549Z,0
2017-03-25T02:31:36.792Z,0
2017-03-25T02:32:38.038Z,0
2017-03-25T02:33:39.276Z,0
2017-03-25T02:34:40.533Z,0
2017-03-25T02:35:41.764Z,0
2017-03-25T02:36:43.028Z,0
2017-03-25T02:37:44.326Z,0
2017-03-25T02:38:45.553Z,0
2017-03-25T02:39:46.797Z,0
2017-03-25T02:40:48.031Z,0
2017-03-25T02:41:49.441Z,0
2017-03-25T02:42:50.851Z,0
2017-03-25T02:43:52.090Z,0
2017-03-25T02:44:53.328Z,0
2017-03-25T02:45:54.566Z,0
2017-03-25T02:46:55.806Z,0
2017-03-25T02:47:57.040Z,0
2017-03-25T02:48:58.287Z,0
2017-03-25T02:49:59.529Z,0
2017-03-25T02:51:00.853Z,0
2017-03-25T02:52:02.100Z,0
2017-03-25T02:53:03.352Z,0
2017-03-25T02:54:04.594Z,0
2017-03-25T02:55:05.853Z,0
2017-03-25T02:56:07.129Z,0
2017-03-25T02:57:08.397Z,0
2017-03-25T02:58:09.651Z,0
2017-03-25T02:59:10.885Z,0
2017-03-25T03:00:12.116Z,0
2017-03-25T03:01:13.379Z,0
2017-03-25T03:02:14.613Z,0
2017-03-25T03:03:15.902Z,0
2017-03-25T03:04:17.142Z,0
2017-03-25T03:05:18.467Z,0
2017-03-25T03:06:19.712Z,0
2017-03-25T03:07:20.992Z,0
2017-03-25T03:08:22.214Z,0
2017-03-25T03:09:23.449Z,0
2017-03-25T03:10:24.696Z,0
2017-03-25T03:11:25.927Z,0
2017-03-25T03:12:27.156Z,0
2017-03-25T03:13:28.406Z,0
2017-03-25T03:14:29.645Z,0
2017-03-25T03:15:30.894Z,0
2017-03-25T03:16:32.140Z,0
2017-03-25T03:17:33.398Z,0
2017-03-25T03:18:34.676Z,0
2017-03-25T03:19:35.907Z,0
2017-03-25T03:20:37.150Z,0
2017-03-25T03:21:38.396Z,0
2017-03-25T03:22:39.632Z,0
2017-03-25T03:23:40.876Z,0
2017-03-25T03:24:42.108Z,0
2017-03-25T03:25:43.338Z,0
2017-03-25T03:26:44.635Z,0
2017-03-25T03:27:45.806Z,0
2017-03-25T03:28:47.115Z,0
2017-03-25T03:29:48.346Z,0
2017-03-25T03:30:49.604Z,0
2017-03-25T03:31:50.837Z,0
2017-03-25T03:32:52.070Z,0
2017-03-25T03:33:53.322Z,0
2017-03-25T03:34:54.587Z,0
2017-03-25T03:35:55.827Z,0
2017-03-25T03:36:57.076Z,0
2017-03-25T03:37:58.326Z,0
2017-03-25T03:38:59.565Z,0
2017-03-25T03:40:00.813Z,0
2017-03-25T03:41:02.156Z,0
2017-03-25T03:42:03.268Z,0
2017-03-25T03:43:04.528Z,0
2017-03-25T03:44:05.733Z,0
2017-03-25T03:45:06.960Z,0
2017-03-25T03:46:08.191Z,0
2017-03-25T03:47:09.492Z,0
2017-03-25T03:48:10.707Z,0
2017-03-25T03:49:11.958Z,0
2017-03-25T03:50:13.199Z,0
2017-03-25T03:51:14.419Z,0
2017-03-25T03:52:15.645Z,0
2017-03-25T03:53:16.881Z,0
2017-03-25T03:54:18.114Z,0
2017-03-25T03:55:19.358Z,0
2017-03-25T03:56:20.593Z,0
2017-03-25T03:57:21.854Z,0
2017-03-25T03:58:23.061Z,0
2017-03-25T03:59:24.298Z,0
2017-03-25T04:00:25.544Z,0
2017-03-25T04:01:26.778Z,0
2017-03-25T04:02:28.135Z,0
2017-03-25T04:03:29.354Z,0
2017-03-25T04:04:30.627Z,0
2017-03-25T04:05:31.887Z,0
2017-03-25T04:06:33.114Z,0
2017-03-25T04:07:34.357Z,0
2017-03-25T04:08:35.589Z,0
2017-03-25T04:09:36.889Z,0
2017-03-25T04:10:38.202Z,0
2017-03-25T04:11:39.422Z,0
2017-03-25T04:12:40.657Z,0
2017-03-25T04:13:41.900Z,0
2017-03-25T04:14:43.146Z,0
2017-03-25T04:15:44.393Z,0
2017-03-25T04:16:45.626Z,0
2017-03-25T04:17:46.861Z,0
2017-03-25T04:18:48.093Z,0
2017-03-25T04:19:49.320Z,0
2017-03-25T04:20:50.563Z,0
2017-03-25T04:21:51.818Z,0
2017-03-25T04:22:53.053Z,0
2017-03-25T04:23:54.278Z,0
2017-03-25T04:24:55.512Z,0
2017-03-25T04:25:56.737Z,0
2017-03-25T04:26:57.976Z,0
2017-03-25T04:27:59.219Z,0
2017-03-25T04:29:00.545Z,0
2017-03-25T04:30:01.779Z,0
2017-03-25T04:31:03.036Z,0
2017-03-25T04:32:04.263Z,0
2017-03-25T04:33:05.492Z,0
2017-03-25T04:34:06.723Z,0
2017-03-25T04:35:08.067Z,0
2017-03-25T04:36:09.209Z,0
2017-03-25T04:37:10.489Z,0
2017-03-25T04:38:11.701Z,0
2017-03-25T04:39:12.941Z,0
2017-03-25T04:40:14.177Z,0
2017-03-25T04:41:15.434Z,0
2017-03-25T04:42:16.690Z,0
2017-03-25T04:43:17.987Z,0
2017-03-25T04:44:19.187Z,0
2017-03-25T04:45:20.423Z,0
2017-03-25T04:46:21.655Z,0
2017-03-25T04:47:22.894Z,0
2017-03-25T04:48:24.143Z,0
2017-03-25T04:49:25.405Z,4
2017-03-25T04:50:26.742Z,4
2017-03-25T04:51:27.978Z,0
2017-03-25T04:52:29.211Z,4
2017-03-25T04:53:30.511Z,4
2017-03-25T04:54:31.718Z,4
2017-03-25T04:55:33.055Z,8
2017-03-25T04:56:34.287Z,8
2017-03-25T04:57:35.526Z,8
2017-03-25T04:58:36.813Z,12
2017-03-25T04:59:38.059Z,12
2017-03-25T05:00:39.371Z,16
2017-03-25T05:01:40.667Z,16
2017-03-25T05:02:41.921Z,20
2017-03-25T05:03:43.167Z,24
2017-03-25T05:04:44.400Z,28
2017-03-25T05:05:45.680Z,32
2017-03-25T05:06:46.918Z,40
2017-03-25T05:07:48.197Z,48
2017-03-25T05:08:49.454Z,52
2017-03-25T05:09:50.723Z,60
2017-03-25T05:10:51.932Z,68
2017-03-25T05:11:53.171Z,76
2017-03-25T05:12:54.465Z,88
2017-03-25T05:13:55.672Z,100
2017-03-25T05:14:56.994Z,108
2017-03-25T05:15:58.236Z,124
2017-03-25T05:16:59.452Z,136
2017-03-25T05:18:00.712Z,148
2017-03-25T05:19:01.915Z,168
2017-03-25T05:20:03.173Z,184
2017-03-25T05:21:04.541Z,204
2017-03-25T05:22:05.752Z,224
2017-03-25T05:23:06.996Z,244
2017-03-25T05:24:08.239Z,264
2017-03-25T05:25:09.465Z,288
2017-03-25T05:26:10.702Z,308
2017-03-25T05:27:11.929Z,336
2017-03-25T05:28:13.187Z,364
2017-03-25T05:29:14.474Z,396
2017-03-25T05:30:15.687Z,428
2017-03-25T05:31:16.919Z,456
2017-03-25T05:32:18.168Z,488
2017-03-25T05:33:19.406Z,520
2017-03-25T05:34:20.726Z,548
2017-03-25T05:35:21.978Z,584
2017-03-25T05:36:23.216Z,612
2017-03-25T05:37:24.450Z,644
2017-03-25T05:38:25.692Z,676
2017-03-25T05:39:26.938Z,712
2017-03-25T05:40:28.230Z,748
2017-03-25T05:41:29.465Z,788
2017-03-25T05:42:30.710Z,820
2017-03-25T05:43:31.938Z,852
2017-03-25T05:44:33.175Z,888
2017-03-25T05:45:34.414Z,924
2017-03-25T05:46:35.644Z,960
2017-03-25T05:47:36.974Z,1004
2017-03-25T05:48:38.280Z,1052
2017-03-25T05:49:39.511Z,1096
2017-03-25T05:50:40.766Z,1144
2017-03-25T05:51:41.999Z,1200
2017-03-25T05:52:43.379Z,1248
2017-03-25T05:53:44.609Z,1308
2017-03-25T05:54:45.870Z,1364
2017-03-25T05:55:47.125Z,1424
2017-03-25T05:56:48.378Z,1488
2017-03-25T05:57:49.619Z,1556
2017-03-25T05:58:50.945Z,1632
2017-03-25T05:59:52.259Z,1708
2017-03-25T06:00:53.501Z,1792
2017-03-25T06:01:54.745Z,1880
2017-03-25T06:02:56.001Z,1976
2017-03-25T06:03:57.223Z,2076
2017-03-25T06:04:58.530Z,2180
2017-03-25T06:05:59.711Z,2292
2017-03-25T06:07:01.029Z,2404
2017-03-25T06:08:02.344Z,2520
2017-03-25T06:09:03.561Z,2640
2017-03-25T06:10:04.784Z,2760
2017-03-25T06:11:06.016Z,2868
2017-03-25T06:12:07.334Z,2988
2017-03-25T06:13:08.577Z,3096
2017-03-25T06:14:09.824Z,3224
2017-03-25T06:15:11.079Z,3356
2017-03-25T06:16:12.326Z,3496
2017-03-25T06:17:13.693Z,3624
2017-03-25T06:18:15.062Z,3784
2017-03-25T06:19:16.309Z,3932
2017-03-25T06:20:17.538Z,4056
2017-03-25T06:21:18.779Z,4120
2017-03-25T06:22:20.018Z,4192
2017-03-25T06:23:21.277Z,4292
2017-03-25T06:24:22.489Z,4384
2017-03-25T06:25:23.725Z,4456
2017-03-25T06:26:24.992Z,4528
2017-03-25T06:27:26.247Z,4620
2017-03-25T06:28:27.517Z,4756
2017-03-25T06:29:28.765Z,4888
2017-03-25T06:30:30.002Z,5036
2017-03-25T06:31:31.323Z,5184
2017-03-25T06:32:32.567Z,5384
2017-03-25T06:33:33.803Z,5620
2017-03-25T06:34:35.047Z,5908
2017-03-25T06:35:36.275Z,6292
2017-03-25T06:36:37.539Z,6844
2017-03-25T06:37:38.865Z,7252
2017-03-25T06:38:40.116Z,7560
2017-03-25T06:39:41.363Z,7968
2017-03-25T06:40:42.609Z,8240
2017-03-25T06:41:43.852Z,8220
2017-03-25T06:42:45.094Z,8256
2017-03-25T06:43:46.348Z,8352
2017-03-25T06:44:47.579Z,8368
2017-03-25T06:45:48.846Z,8152
2017-03-25T06:46:50.099Z,8032
2017-03-25T06:47:51.306Z,8308
2017-03-25T06:48:52.564Z,8688
2017-03-25T06:49:53.816Z,9292
2017-03-25T06:50:55.074Z,9472
2017-03-25T06:51:56.309Z,10132
2017-03-25T06:52:57.547Z,10488
2017-03-25T06:53:58.878Z,10932
2017-03-25T06:55:00.119Z,10756
2017-03-25T06:56:01.484Z,10396
2017-03-25T06:57:02.733Z,10492
2017-03-25T06:58:04.018Z,10552
2017-03-25T06:59:05.261Z,11088
2017-03-25T07:00:06.505Z,11236
2017-03-25T07:01:07.755Z,12284
2017-03-25T07:02:09.006Z,12376
2017-03-25T07:03:10.341Z,12480
2017-03-25T07:04:11.629Z,13688
2017-03-25T07:05:12.959Z,14196
2017-03-25T07:06:14.204Z,14784
2017-03-25T07:07:15.443Z,15488
2017-03-25T07:08:16.707Z,16000
2017-03-25T07:09:17.959Z,15936
2017-03-25T07:10:19.203Z,16096
2017-03-25T07:11:20.457Z,16896
2017-03-25T07:12:21.704Z,18560
2017-03-25T07:13:22.935Z,18784
2017-03-25T07:14:24.214Z,18240
2017-03-25T07:15:25.437Z,18368
2017-03-25T07:16:26.704Z,18304
2017-03-25T07:17:27.994Z,18560
2017-03-25T07:18:29.228Z,19328
2017-03-25T07:19:30.492Z,20160
2017-03-25T07:20:31.741Z,20448
2017-03-25T07:21:32.995Z,20800
2017-03-25T07:22:34.261Z,20960
2017-03-25T07:23:35.503Z,21536
2017-03-25T07:24:36.749Z,21184
2017-03-25T07:25:37.998Z,21760
2017-03-25T07:26:39.251Z,21344
2017-03-25T07:27:40.500Z,21600
2017-03-25T07:28:41.739Z,22272
2017-03-25T07:29:42.996Z,22496
2017-03-25T07:30:44.260Z,21728
2017-03-25T07:31:45.486Z,20992
2017-03-25T07:32:46.741Z,20576
2017-03-25T07:33:47.981Z,21120
2017-03-25T07:34:49.383Z,21664
2017-03-25T07:35:50.650Z,22400
2017-03-25T07:36:51.903Z,23008
2017-03-25T07:37:53.160Z,22848
2017-03-25T07:38:54.457Z,22848
2017-03-25T07:39:55.657Z,23136
2017-03-25T07:40:56.905Z,23648
2017-03-25T07:41:58.263Z,24032
2017-03-25T07:42:59.515Z,24544
2017-03-25T07:44:00.795Z,24576
2017-03-25T07:45:02.045Z,25088
2017-03-25T07:46:03.295Z,26048
2017-03-25T07:47:04.551Z,25984
2017-03-25T07:48:05.803Z,27520
2017-03-25T07:49:07.129Z,27648
2017-03-25T07:50:08.375Z,23040
2017-03-25T07:51:09.718Z,25248
2017-03-25T07:52:10.978Z,28288
2017-03-25T07:53:12.286Z,26880
2017-03-25T07:54:13.538Z,26752
2017-03-25T07:55:14.785Z,25952
2017-03-25T07:56:16.043Z,24320
2017-03-25T07:57:17.336Z,22976
2017-03-25T07:58:18.592Z,22752
2017-03-25T07:59:19.840Z,22144
2017-03-25T08:00:21.159Z,21536
2017-03-25T08:01:22.514Z,20928
2017-03-25T08:02:23.783Z,20864
2017-03-25T08:03:25.018Z,20704
2017-03-25T08:04:26.286Z,19584
2017-03-25T08:05:27.669Z,19520
2017-03-25T08:06:28.909Z,19744
2017-03-25T08:07:30.173Z,19680
2017-03-25T08:08:31.618Z,19776
2017-03-25T08:09:32.864Z,19424
2017-03-25T08:10:34.159Z,19968
2017-03-25T08:11:35.440Z,21088
2017-03-25T08:12:36.709Z,21120
2017-03-25T08:13:37.953Z,19712
2017-03-25T08:14:39.200Z,19968
2017-03-25T08:15:40.556Z,20224
2017-03-25T08:16:41.697Z,19872
2017-03-25T08:17:43.084Z,20000
2017-03-25T08:18:44.463Z,20544
2017-03-25T08:19:45.718Z,20544
2017-03-25T08:20:46.983Z,20960
2017-03-25T08:21:48.225Z,20928
2017-03-25T08:22:49.465Z,20800
2017-03-25T08:23:50.722Z,20896
2017-03-25T08:24:51.986Z,20416
2017-03-25T08:25:53.244Z,20736
2017-03-25T08:26:54.504Z,21056
2017-03-25T08:27:55.780Z,21248
2017-03-25T08:28:57.120Z,21184
2017-03-25T08:29:58.384Z,21248
2017-03-25T08:30:59.680Z,21056
2017-03-25T08:32:00.891Z,21152
2017-03-25T08:33:02.159Z,21184
2017-03-25T08:34:03.403Z,21600
2017-03-25T08:35:04.696Z,21888
2017-03-25T08:36:05.953Z,21824
2017-03-25T08:37:07.232Z,22016
2017-03-25T08:38:08.519Z,22720
2017-03-25T08:39:09.798Z,22656
2017-03-25T08:40:11.035Z,22400
2017-03-25T08:41:12.288Z,22144
2017-03-25T08:42:13.541Z,22176
2017-03-25T08:43:14.797Z,22432
2017-03-25T08:44:16.044Z,22624
2017-03-25T08:45:17.288Z,22784
2017-03-25T08:46:18.663Z,23264
2017-03-25T08:47:19.912Z,23872
2017-03-25T08:48:21.222Z,24928
2017-03-25T08:49:22.572Z,25440
2017-03-25T08:50:23.834Z,25056
2017-03-25T08:51:25.099Z,25088
2017-03-25T08:52:26.475Z,25792
2017-03-25T08:53:27.781Z,26016
2017-03-25T08:54:29.071Z,26304
2017-03-25T08:55:30.334Z,26048
2017-03-25T08:56:31.584Z,25888
2017-03-25T08:57:32.862Z,26656
2017-03-25T08:58:34.101Z,26400
2017-03-25T08:59:35.351Z,26400
2017-03-25T09:00:36.693Z,26336
2017-03-25T09:01:37.944Z,26176
2017-03-25T09:02:39.200Z,20320
2017-03-25T09:03:40.475Z,26176
2017-03-25T09:04:41.714Z,26080
2017-03-25T09:05:43.122Z,26976
2017-03-25T09:06:44.395Z,27392
2017-03-25T09:07:45.656Z,27456
2017-03-25T09:08:46.936Z,27584
2017-03-25T09:09:48.212Z,27936
2017-03-25T09:10:49.473Z,27680
2017-03-25T09:11:50.795Z,27136
2017-03-25T09:12:52.053Z,26592
2017-03-25T09:13:53.313Z,26688
2017-03-25T09:14:54.565Z,26784
2017-03-25T09:15:55.880Z,26560
2017-03-25T09:16:57.199Z,26816
2017-03-25T09:17:58.550Z,27488
2017-03-25T09:18:59.809Z,27712
2017-03-25T09:20:01.104Z,27680
2017-03-25T09:21:02.336Z,27712
2017-03-25T09:22:03.609Z,28416
2017-03-25T09:23:04.967Z,29024
2017-03-25T09:24:06.224Z,29184
2017-03-25T09:25:07.492Z,29984
2017-03-25T09:26:08.747Z,29920
2017-03-25T09:27:10.002Z,29824
2017-03-25T09:28:11.394Z,30560
2017-03-25T09:29:12.649Z,30144
2017-03-25T09:30:13.907Z,29888
2017-03-25T09:31:15.170Z,30144
2017-03-25T09:32:16.429Z,30656
2017-03-25T09:33:17.784Z,31424
2017-03-25T09:34:19.104Z,31584
2017-03-25T09:35:20.342Z,31680
2017-03-25T09:36:21.595Z,32160
2017-03-25T09:37:22.856Z,32480
2017-03-25T09:38:24.124Z,32448
2017-03-25T09:39:25.378Z,31584
2017-03-25T09:40:26.770Z,31328
2017-03-25T09:41:28.020Z,32288
2017-03-25T09:42:29.283Z,33088
2017-03-25T09:43:30.550Z,33376
2017-03-25T09:44:31.805Z,34848
2017-03-25T09:45:33.101Z,36288
2017-03-25T09:46:34.452Z,35104
2017-03-25T09:47:35.690Z,41824
2017-03-25T09:48:37.061Z,44032
2017-03-25T09:49:38.302Z,45760
2017-03-25T09:50:39.690Z,47328
2017-03-25T09:51:40.959Z,46176
2017-03-25T09:52:42.233Z,45824
2017-03-25T09:53:43.624Z,46688
2017-03-25T09:54:44.900Z,51904
2017-03-25T09:55:46.126Z,55808
2017-03-25T09:56:47.410Z,56000
2017-03-25T09:57:48.750Z,56192
2017-03-25T09:58:49.993Z,57088
2017-03-25T09:59:51.269Z,57984
2017-03-25T10:00:52.510Z,57120
2017-03-25T10:01:53.813Z,55872
2017-03-25T10:02:55.211Z,57664
2017-03-25T10:03:56.487Z,56864
2017-03-25T10:04:57.737Z,57312
2017-03-25T10:05:59.108Z,57536
2017-03-25T10:07:00.376Z,54240
2017-03-25T10:08:01.649Z,57760
2017-03-25T10:09:02.925Z,64416
2017-03-25T10:10:04.193Z,68000
2017-03-25T10:11:05.446Z,68672
2017-03-25T10:12:06.711Z,73952
2017-03-25T10:13:07.977Z,58080
2017-03-25T10:14:09.229Z,57760
2017-03-25T10:15:10.523Z,34304
2017-03-25T10:16:11.793Z,80544
2017-03-25T10:17:13.076Z,80320
2017-03-25T10:18:14.325Z,76640
2017-03-25T10:19:15.586Z,52640
2017-03-25T10:20:16.886Z,52768
2017-03-25T10:21:18.118Z,60960
2017-03-25T10:22:19.478Z,58816
2017-03-25T10:23:20.784Z,44512
2017-03-25T10:24:22.048Z,52864
2017-03-25T10:25:23.279Z,54144
2017-03-25T10:26:24.638Z,59904
2017-03-25T10:27:25.914Z,58208
2017-03-25T10:28:27.251Z,60032
2017-03-25T10:29:28.549Z,59744
2017-03-25T10:30:29.798Z,59104
2017-03-25T10:31:31.047Z,51616
2017-03-25T10:32:32.436Z,51200
2017-03-25T10:33:33.780Z,52640
2017-03-25T10:34:35.095Z,49568
2017-03-25T10:35:36.342Z,46176
2017-03-25T10:36:37.602Z,48192
2017-03-25T10:37:38.882Z,51360
2017-03-25T10:38:40.134Z,50656
2017-03-25T10:39:41.389Z,54944
2017-03-25T10:40:42.678Z,56928
2017-03-25T10:41:43.951Z,57696
2017-03-25T10:42:45.203Z,57824
2017-03-25T10:43:46.487Z,52544
2017-03-25T10:44:47.776Z,42752
2017-03-25T10:45:49.111Z,40992
2017-03-25T10:46:50.364Z,42880
2017-03-25T10:47:51.618Z,22624
2017-03-25T10:48:52.932Z,11352
2017-03-25T10:49:54.193Z,10460
2017-03-25T10:50:55.362Z,10140
2017-03-25T10:51:56.677Z,9952
2017-03-25T10:52:57.954Z,9760
2017-03-25T10:53:59.191Z,9568
2017-03-25T10:55:00.436Z,9364
2017-03-25T10:56:01.700Z,9148
2017-03-25T10:57:02.991Z,8956
2017-03-25T10:58:04.297Z,8740
2017-03-25T10:59:05.602Z,8496
2017-03-25T11:00:06.921Z,8240
2017-03-25T11:01:08.161Z,7800
2017-03-25T11:02:09.409Z,7536
2017-03-25T11:03:10.687Z,7328
2017-03-25T11:04:11.946Z,7200
2017-03-25T11:05:13.261Z,7188
2017-03-25T11:06:14.510Z,7020
2017-03-25T11:07:15.790Z,6884
2017-03-25T11:08:17.017Z,6796
2017-03-25T11:09:18.298Z,6704
2017-03-25T11:10:19.634Z,6620
2017-03-25T11:11:20.951Z,6564
2017-03-25T11:12:22.200Z,6492
2017-03-25T11:13:23.442Z,6460
2017-03-25T11:14:24.737Z,6424
2017-03-25T11:15:25.980Z,6500
2017-03-25T11:16:27.309Z,6728
2017-03-25T11:17:28.534Z,6996
2017-03-25T11:18:29.786Z,7132
2017-03-25T11:19:31.031Z,6700
2017-03-25T11:20:32.276Z,6012
2017-03-25T11:21:33.535Z,5668
2017-03-25T11:22:34.796Z,5432
2017-03-25T11:23:36.035Z,5256
2017-03-25T11:24:37.280Z,5052
2017-03-25T11:25:38.539Z,4848
2017-03-25T11:26:39.800Z,4756
2017-03-25T11:27:41.034Z,4832
2017-03-25T11:28:42.299Z,4960
2017-03-25T11:29:43.565Z,4948
2017-03-25T11:30:44.787Z,4900
2017-03-25T11:31:46.039Z,4848
2017-03-25T11:32:47.291Z,4800
2017-03-25T11:33:48.545Z,4748
2017-03-25T11:34:49.782Z,4704
2017-03-25T11:35:51.045Z,4684
2017-03-25T11:36:52.303Z,4640
2017-03-25T11:37:53.561Z,4584
2017-03-25T11:38:54.790Z,4544
2017-03-25T11:39:56.057Z,4488
2017-03-25T11:40:57.298Z,4448
2017-03-25T11:41:58.541Z,4400
2017-03-25T11:42:59.792Z,4336
2017-03-25T11:44:01.039Z,4300
2017-03-25T11:45:02.304Z,4256
2017-03-25T11:46:03.525Z,4196
2017-03-25T11:47:04.865Z,4156
2017-03-25T11:48:06.138Z,4124
2017-03-25T11:49:07.410Z,4108
2017-03-25T11:50:08.714Z,4084
2017-03-25T11:51:09.952Z,4064
2017-03-25T11:52:11.241Z,4056
2017-03-25T11:53:12.519Z,4052
2017-03-25T11:54:13.755Z,4040
2017-03-25T11:55:15.045Z,4032
2017-03-25T11:56:16.281Z,4032
2017-03-25T11:57:17.523Z,4012
2017-03-25T11:58:18.780Z,4004
2017-03-25T11:59:20.073Z,3992
2017-03-25T12:00:21.332Z,3980
2017-03-25T12:01:22.581Z,3968
2017-03-25T12:02:23.822Z,3960
2017-03-25T12:03:25.167Z,3952
2017-03-25T12:04:26.420Z,3920
2017-03-25T12:05:27.657Z,3888
2017-03-25T12:06:29.006Z,3856
2017-03-25T12:07:30.291Z,3824
2017-03-25T12:08:31.736Z,3784
2017-03-25T12:09:32.987Z,3744
2017-03-25T12:10:34.225Z,3708
2017-03-25T12:11:35.539Z,3680
2017-03-25T12:12:36.822Z,3652
2017-03-25T12:13:38.074Z,3632
2017-03-25T12:14:39.327Z,3608
2017-03-25T12:15:40.544Z,3592
2017-03-25T12:16:41.853Z,3584
2017-03-25T12:17:43.277Z,3580
2017-03-25T12:18:44.526Z,3572
2017-03-25T12:19:45.777Z,3572
2017-03-25T12:20:47.036Z,3564
2017-03-25T12:21:48.275Z,3564
2017-03-25T12:22:49.586Z,3560
2017-03-25T12:23:50.826Z,3556
2017-03-25T12:24:52.194Z,3544
2017-03-25T12:25:53.457Z,3532
2017-03-25T12:26:54.681Z,3508
2017-03-25T12:27:55.929Z,3484
2017-03-25T12:28:57.185Z,3464
2017-03-25T12:29:58.440Z,3440
2017-03-25T12:30:59.679Z,3412
2017-03-25T12:32:01.068Z,3396
2017-03-25T12:33:02.304Z,3380
2017-03-25T12:34:03.546Z,3364
2017-03-25T12:35:04.902Z,3344
2017-03-25T12:36:06.036Z,3316
2017-03-25T12:37:07.341Z,3280
2017-03-25T12:38:08.584Z,3244
2017-03-25T12:39:09.829Z,3220
2017-03-25T12:40:11.074Z,3208
2017-03-25T12:41:12.309Z,3200
2017-03-25T12:42:13.608Z,3180
2017-03-25T12:43:14.960Z,3164
2017-03-25T12:44:16.199Z,3160
2017-03-25T12:45:17.443Z,3152
2017-03-25T12:46:18.687Z,3152
2017-03-25T12:47:19.952Z,3136
2017-03-25T12:48:21.196Z,3124
2017-03-25T12:49:22.532Z,3124
2017-03-25T12:50:23.779Z,3124
2017-03-25T12:51:25.173Z,3116
2017-03-25T12:52:26.445Z,3108
2017-03-25T12:53:27.740Z,3100
2017-03-25T12:54:28.997Z,3092
2017-03-25T12:55:30.257Z,3088
2017-03-25T12:56:31.636Z,3080
2017-03-25T12:57:32.905Z,3072
2017-03-25T12:58:34.163Z,3060
2017-03-25T12:59:35.414Z,3056
2017-03-25T13:00:36.696Z,3056
2017-03-25T13:01:37.943Z,3048
2017-03-25T13:02:39.267Z,3044
2017-03-25T13:03:40.514Z,3036
2017-03-25T13:04:41.777Z,3036
2017-03-25T13:05:43.054Z,3036
2017-03-25T13:06:44.347Z,3036
2017-03-25T13:07:45.589Z,3040
2017-03-25T13:08:46.835Z,3044
2017-03-25T13:09:48.074Z,3044
2017-03-25T13:10:49.338Z,3052
2017-03-25T13:11:50.570Z,3060
2017-03-25T13:12:51.835Z,3064
2017-03-25T13:13:53.054Z,3076
2017-03-25T13:14:54.350Z,3088
2017-03-25T13:15:55.615Z,3096
2017-03-25T13:16:56.839Z,3116
2017-03-25T13:17:58.074Z,3124
2017-03-25T13:18:59.556Z,3140
2017-03-25T13:20:00.913Z,3152
2017-03-25T13:21:02.169Z,3176
2017-03-25T13:22:03.414Z,3196
2017-03-25T13:23:04.655Z,3216
2017-03-25T13:24:06.004Z,3232
2017-03-25T13:25:07.403Z,3264
2017-03-25T13:26:08.659Z,3284
2017-03-25T13:27:09.922Z,3316
2017-03-25T13:28:11.160Z,3344
2017-03-25T13:29:12.407Z,3372
2017-03-25T13:30:13.728Z,3408
2017-03-25T13:31:15.006Z,3436
2017-03-25T13:32:16.242Z,3456
2017-03-25T13:33:17.514Z,3480
2017-03-25T13:34:18.733Z,3504
2017-03-25T13:35:20.095Z,3532
2017-03-25T13:36:21.330Z,3556
2017-03-25T13:37:22.780Z,3584
2017-03-25T13:38:24.032Z,3616
2017-03-25T13:39:25.311Z,3648
2017-03-25T13:40:26.551Z,3676
2017-03-25T13:41:27.788Z,3708
2017-03-25T13:42:29.037Z,3740
2017-03-25T13:43:30.390Z,3776
2017-03-25T13:44:31.634Z,3796
2017-03-25T13:45:32.922Z,3824
2017-03-25T13:46:34.145Z,3848
2017-03-25T13:47:35.433Z,3864
2017-03-25T13:48:36.690Z,3884
2017-03-25T13:49:37.943Z,3904
2017-03-25T13:50:39.232Z,3912
2017-03-25T13:51:40.472Z,3916
2017-03-25T13:52:41.752Z,3924
2017-03-25T13:53:42.972Z,3928
2017-03-25T13:54:44.221Z,3924
2017-03-25T13:55:45.557Z,3908
2017-03-25T13:56:46.827Z,3896
2017-03-25T13:57:48.075Z,3880
2017-03-25T13:58:49.321Z,3860